sensor_id;sensor_type;location;lat;lon;timestamp;temperature;humidity
67358;HTU21D;54240;51.096;5.878;2023-03-05T00:01:33;6.29;-6.00
67358;HTU21D;54240;51.096;5.878;2023-03-05T00:04:01;6.31;-5.40
67358;HTU21D;54240;51.096;5.878;2023-03-05T00:06:29;6.33;-3.56
67358;HTU21D;54240;51.096;5.878;2023-03-05T00:08:55;6.34;-0.38
67358;HTU21D;54240;51.096;5.878;2023-03-05T00:11:24;6.33;2.58
67358;HTU21D;54240;51.096;5.878;2023-03-05T00:13:53;6.36;13.92
67358;HTU21D;54240;51.096;5.878;2023-03-05T00:16:21;6.37;15.93
67358;HTU21D;54240;51.096;5.878;2023-03-05T00:18:48;6.41;16.39
67358;HTU21D;54240;51.096;5.878;2023-03-05T00:23:43;6.45;23.56
67358;HTU21D;54240;51.096;5.878;2023-03-05T00:26:08;6.50;25.78
67358;HTU21D;54240;51.096;5.878;2023-03-05T00:28:35;6.48;28.29
67358;HTU21D;54240;51.096;5.878;2023-03-05T00:31:01;6.40;30.73
67358;HTU21D;54240;51.096;5.878;2023-03-05T00:33:27;6.43;41.91
67358;HTU21D;54240;51.096;5.878;2023-03-05T00:35:53;6.41;49.05
67358;HTU21D;54240;51.096;5.878;2023-03-05T00:38:19;6.36;53.33
67358;HTU21D;54240;51.096;5.878;2023-03-05T00:40:45;6.37;57.71
67358;HTU21D;54240;51.096;5.878;2023-03-05T00:43:11;6.38;55.38
67358;HTU21D;54240;51.096;5.878;2023-03-05T00:45:37;6.38;54.56
67358;HTU21D;54240;51.096;5.878;2023-03-05T00:48:03;6.39;49.51
67358;HTU21D;54240;51.096;5.878;2023-03-05T00:50:29;6.38;47.79
67358;HTU21D;54240;51.096;5.878;2023-03-05T00:52:55;6.37;49.87
67358;HTU21D;54240;51.096;5.878;2023-03-05T00:55:21;6.36;47.91
67358;HTU21D;54240;51.096;5.878;2023-03-05T00:57:47;6.35;53.59
67358;HTU21D;54240;51.096;5.878;2023-03-05T01:00:13;6.38;52.98
67358;HTU21D;54240;51.096;5.878;2023-03-05T01:02:40;6.40;53.19
67358;HTU21D;54240;51.096;5.878;2023-03-05T01:05:09;6.40;50.58
67358;HTU21D;54240;51.096;5.878;2023-03-05T01:07:35;6.38;53.27
67358;HTU21D;54240;51.096;5.878;2023-03-05T01:10:01;6.36;61.68
67358;HTU21D;54240;51.096;5.878;2023-03-05T01:12:27;6.34;60.90
67358;HTU21D;54240;51.096;5.878;2023-03-05T01:14:53;6.30;66.62
67358;HTU21D;54240;51.096;5.878;2023-03-05T01:17:19;6.29;76.65
67358;HTU21D;54240;51.096;5.878;2023-03-05T01:19:45;6.28;80.96
67358;HTU21D;54240;51.096;5.878;2023-03-05T01:23:59;6.29;92.68
67358;HTU21D;54240;51.096;5.878;2023-03-05T01:26:24;6.31;96.19
67358;HTU21D;54240;51.096;5.878;2023-03-05T01:28:50;6.35;95.82
67358;HTU21D;54240;51.096;5.878;2023-03-05T01:31:16;6.30;99.09
67358;HTU21D;54240;51.096;5.878;2023-03-05T01:33:42;6.27;102.98
67358;HTU21D;54240;51.096;5.878;2023-03-05T01:36:10;6.25;102.82
67358;HTU21D;54240;51.096;5.878;2023-03-05T01:38:41;6.23;107.05
67358;HTU21D;54240;51.096;5.878;2023-03-05T01:41:08;6.23;110.44
67358;HTU21D;54240;51.096;5.878;2023-03-05T01:43:34;6.24;110.13
67358;HTU21D;54240;51.096;5.878;2023-03-05T01:49:07;6.25;108.36
67358;HTU21D;54240;51.096;5.878;2023-03-05T01:57:14;6.19;96.13
67358;HTU21D;54240;51.096;5.878;2023-03-05T01:59:45;6.22;94.65
67358;HTU21D;54240;51.096;5.878;2023-03-05T02:02:12;6.22;92.19
67358;HTU21D;54240;51.096;5.878;2023-03-05T02:04:47;6.22;90.73
67358;HTU21D;54240;51.096;5.878;2023-03-05T02:07:15;6.24;91.76
67358;HTU21D;54240;51.096;5.878;2023-03-05T02:09:41;6.22;87.35
67358;HTU21D;54240;51.096;5.878;2023-03-05T02:12:09;6.19;83.61
67358;HTU21D;54240;51.096;5.878;2023-03-05T02:14:37;6.13;94.30
67358;HTU21D;54240;51.096;5.878;2023-03-05T02:17:04;6.04;102.38
67358;HTU21D;54240;51.096;5.878;2023-03-05T02:22:15;5.87;118.99
67358;HTU21D;54240;51.096;5.878;2023-03-05T02:24:41;5.79;118.99
67358;HTU21D;54240;51.096;5.878;2023-03-05T02:27:07;5.74;118.99
67358;HTU21D;54240;51.096;5.878;2023-03-05T02:29:38;5.74;118.99
67358;HTU21D;54240;51.096;5.878;2023-03-05T02:32:06;5.72;118.99
67358;HTU21D;54240;51.096;5.878;2023-03-05T02:34:34;5.71;118.99
67358;HTU21D;54240;51.096;5.878;2023-03-05T02:37:01;5.75;118.99
67358;HTU21D;54240;51.096;5.878;2023-03-05T02:39:31;5.66;118.99
67358;HTU21D;54240;51.096;5.878;2023-03-05T02:41:56;5.53;118.99
67358;HTU21D;54240;51.096;5.878;2023-03-05T02:44:22;5.46;118.99
67358;HTU21D;54240;51.096;5.878;2023-03-05T02:46:48;5.42;118.99
67358;HTU21D;54240;51.096;5.878;2023-03-05T02:49:14;5.48;118.99
67358;HTU21D;54240;51.096;5.878;2023-03-05T02:51:41;5.53;118.99
67358;HTU21D;54240;51.096;5.878;2023-03-05T02:54:07;5.54;118.99
67358;HTU21D;54240;51.096;5.878;2023-03-05T02:56:34;5.40;118.99
67358;HTU21D;54240;51.096;5.878;2023-03-05T02:59:00;5.36;118.99
67358;HTU21D;54240;51.096;5.878;2023-03-05T03:01:26;5.36;118.99
67358;HTU21D;54240;51.096;5.878;2023-03-05T03:03:54;5.30;118.99
67358;HTU21D;54240;51.096;5.878;2023-03-05T03:06:20;5.25;118.99
67358;HTU21D;54240;51.096;5.878;2023-03-05T03:08:46;5.32;118.99
67358;HTU21D;54240;51.096;5.878;2023-03-05T03:11:12;5.40;118.99
67358;HTU21D;54240;51.096;5.878;2023-03-05T03:13:39;5.43;118.99
67358;HTU21D;54240;51.096;5.878;2023-03-05T03:16:07;5.36;118.99
67358;HTU21D;54240;51.096;5.878;2023-03-05T03:18:34;5.36;118.99
67358;HTU21D;54240;51.096;5.878;2023-03-05T03:21:00;5.37;118.99
67358;HTU21D;54240;51.096;5.878;2023-03-05T03:23:26;5.36;118.99
67358;HTU21D;54240;51.096;5.878;2023-03-05T03:25:52;5.43;118.99
67358;HTU21D;54240;51.096;5.878;2023-03-05T03:28:18;5.50;118.99
67358;HTU21D;54240;51.096;5.878;2023-03-05T03:30:44;5.52;118.99
67358;HTU21D;54240;51.096;5.878;2023-03-05T03:33:10;5.48;118.99
67358;HTU21D;54240;51.096;5.878;2023-03-05T03:35:37;5.47;118.99
67358;HTU21D;54240;51.096;5.878;2023-03-05T03:38:03;5.34;118.99
67358;HTU21D;54240;51.096;5.878;2023-03-05T03:40:29;5.38;118.99
67358;HTU21D;54240;51.096;5.878;2023-03-05T03:42:55;5.42;118.99
67358;HTU21D;54240;51.096;5.878;2023-03-05T03:45:21;5.47;118.99
67358;HTU21D;54240;51.096;5.878;2023-03-05T03:47:48;5.47;118.99
67358;HTU21D;54240;51.096;5.878;2023-03-05T03:50:14;5.47;118.99
67358;HTU21D;54240;51.096;5.878;2023-03-05T03:52:40;5.50;118.99
67358;HTU21D;54240;51.096;5.878;2023-03-05T03:55:06;5.52;118.99
67358;HTU21D;54240;51.096;5.878;2023-03-05T03:57:32;5.49;118.99
67358;HTU21D;54240;51.096;5.878;2023-03-05T03:59:59;5.42;118.99
67358;HTU21D;54240;51.096;5.878;2023-03-05T04:02:25;5.45;118.99
67358;HTU21D;54240;51.096;5.878;2023-03-05T04:04:52;5.34;118.99
67358;HTU21D;54240;51.096;5.878;2023-03-05T04:07:18;5.41;118.99
67358;HTU21D;54240;51.096;5.878;2023-03-05T04:09:44;5.34;118.99
67358;HTU21D;54240;51.096;5.878;2023-03-05T04:12:10;5.30;118.99
67358;HTU21D;54240;51.096;5.878;2023-03-05T04:14:36;5.34;118.99
67358;HTU21D;54240;51.096;5.878;2023-03-05T04:17:02;5.34;118.99
67358;HTU21D;54240;51.096;5.878;2023-03-05T04:19:28;5.32;118.99
67358;HTU21D;54240;51.096;5.878;2023-03-05T04:21:57;5.36;118.99
67358;HTU21D;54240;51.096;5.878;2023-03-05T04:24:23;5.38;118.99
67358;HTU21D;54240;51.096;5.878;2023-03-05T04:26:48;5.43;118.99
67358;HTU21D;54240;51.096;5.878;2023-03-05T04:29:14;5.47;118.99
67358;HTU21D;54240;51.096;5.878;2023-03-05T04:31:40;5.51;118.99
67358;HTU21D;54240;51.096;5.878;2023-03-05T04:34:06;5.55;118.99
67358;HTU21D;54240;51.096;5.878;2023-03-05T04:36:32;5.57;118.99
67358;HTU21D;54240;51.096;5.878;2023-03-05T04:38:57;5.62;118.99
67358;HTU21D;54240;51.096;5.878;2023-03-05T04:41:23;5.59;118.99
67358;HTU21D;54240;51.096;5.878;2023-03-05T04:43:49;5.57;118.99
67358;HTU21D;54240;51.096;5.878;2023-03-05T04:46:15;5.61;118.99
67358;HTU21D;54240;51.096;5.878;2023-03-05T04:48:40;5.63;118.99
67358;HTU21D;54240;51.096;5.878;2023-03-05T04:51:06;5.63;118.99
67358;HTU21D;54240;51.096;5.878;2023-03-05T04:53:32;5.59;118.99
67358;HTU21D;54240;51.096;5.878;2023-03-05T04:55:58;5.45;118.99
67358;HTU21D;54240;51.096;5.878;2023-03-05T04:58:26;5.32;118.99
67358;HTU21D;54240;51.096;5.878;2023-03-05T05:00:52;5.25;118.99
67358;HTU21D;54240;51.096;5.878;2023-03-05T05:03:18;5.21;118.99
67358;HTU21D;54240;51.096;5.878;2023-03-05T05:05:44;5.11;118.99
67358;HTU21D;54240;51.096;5.878;2023-03-05T05:08:10;5.13;118.99
67358;HTU21D;54240;51.096;5.878;2023-03-05T05:10:36;5.12;118.99
67358;HTU21D;54240;51.096;5.878;2023-03-05T05:13:05;5.15;118.99
67358;HTU21D;54240;51.096;5.878;2023-03-05T05:15:31;5.17;118.99
67358;HTU21D;54240;51.096;5.878;2023-03-05T05:17:57;5.15;118.99
67358;HTU21D;54240;51.096;5.878;2023-03-05T05:20:23;5.13;118.99
67358;HTU21D;54240;51.096;5.878;2023-03-05T05:22:49;5.15;118.99
67358;HTU21D;54240;51.096;5.878;2023-03-05T05:25:15;5.12;118.99
67358;HTU21D;54240;51.096;5.878;2023-03-05T05:27:41;5.09;118.99
67358;HTU21D;54240;51.096;5.878;2023-03-05T05:30:07;5.10;118.99
67358;HTU21D;54240;51.096;5.878;2023-03-05T05:32:33;5.03;118.99
67358;HTU21D;54240;51.096;5.878;2023-03-05T05:34:59;5.02;118.99
67358;HTU21D;54240;51.096;5.878;2023-03-05T05:37:26;4.94;118.99
67358;HTU21D;54240;51.096;5.878;2023-03-05T05:39:52;4.79;118.99
67358;HTU21D;54240;51.096;5.878;2023-03-05T05:42:20;4.91;118.99
67358;HTU21D;54240;51.096;5.878;2023-03-05T05:44:46;4.92;118.99
67358;HTU21D;54240;51.096;5.878;2023-03-05T05:47:14;4.79;118.99
67358;HTU21D;54240;51.096;5.878;2023-03-05T05:49:40;4.88;118.99
67358;HTU21D;54240;51.096;5.878;2023-03-05T05:52:06;4.90;118.99
67358;HTU21D;54240;51.096;5.878;2023-03-05T05:54:32;4.88;118.99
67358;HTU21D;54240;51.096;5.878;2023-03-05T05:56:58;4.88;118.99
67358;HTU21D;54240;51.096;5.878;2023-03-05T05:59:24;4.87;118.99
67358;HTU21D;54240;51.096;5.878;2023-03-05T06:01:49;4.86;118.99
67358;HTU21D;54240;51.096;5.878;2023-03-05T06:04:15;4.76;118.99
67358;HTU21D;54240;51.096;5.878;2023-03-05T06:06:41;4.82;118.99
67358;HTU21D;54240;51.096;5.878;2023-03-05T06:09:07;4.84;118.99
67358;HTU21D;54240;51.096;5.878;2023-03-05T06:11:33;4.80;118.99
67358;HTU21D;54240;51.096;5.878;2023-03-05T06:14:00;4.76;118.99
67358;HTU21D;54240;51.096;5.878;2023-03-05T06:16:28;4.80;118.99
67358;HTU21D;54240;51.096;5.878;2023-03-05T06:18:54;4.86;118.99
67358;HTU21D;54240;51.096;5.878;2023-03-05T06:21:22;4.88;118.99
67358;HTU21D;54240;51.096;5.878;2023-03-05T06:23:49;4.87;118.99
67358;HTU21D;54240;51.096;5.878;2023-03-05T06:26:19;4.91;118.99
67358;HTU21D;54240;51.096;5.878;2023-03-05T06:28:45;4.93;118.99
67358;HTU21D;54240;51.096;5.878;2023-03-05T06:31:17;4.94;118.99
67358;HTU21D;54240;51.096;5.878;2023-03-05T06:33:44;4.93;118.99
67358;HTU21D;54240;51.096;5.878;2023-03-05T06:36:15;4.93;118.99
67358;HTU21D;54240;51.096;5.878;2023-03-05T06:38:42;4.90;118.99
67358;HTU21D;54240;51.096;5.878;2023-03-05T06:41:17;4.90;118.99
67358;HTU21D;54240;51.096;5.878;2023-03-05T06:43:45;4.92;118.99
67358;HTU21D;54240;51.096;5.878;2023-03-05T06:46:23;4.96;118.99
67358;HTU21D;54240;51.096;5.878;2023-03-05T06:48:50;4.91;118.99
67358;HTU21D;54240;51.096;5.878;2023-03-05T06:51:19;4.92;118.99
67358;HTU21D;54240;51.096;5.878;2023-03-05T06:53:47;4.91;118.99
67358;HTU21D;54240;51.096;5.878;2023-03-05T06:56:13;4.90;118.99
67358;HTU21D;54240;51.096;5.878;2023-03-05T06:58:42;4.95;118.99
67358;HTU21D;54240;51.096;5.878;2023-03-05T07:01:10;5.00;118.99
67358;HTU21D;54240;51.096;5.878;2023-03-05T07:03:37;5.01;118.99
67358;HTU21D;54240;51.096;5.878;2023-03-05T07:06:08;4.93;118.99
67358;HTU21D;54240;51.096;5.878;2023-03-05T07:08:34;4.97;118.99
67358;HTU21D;54240;51.096;5.878;2023-03-05T07:11:01;5.03;118.99
67358;HTU21D;54240;51.096;5.878;2023-03-05T07:13:28;5.04;118.99
67358;HTU21D;54240;51.096;5.878;2023-03-05T07:15:54;5.06;118.99
67358;HTU21D;54240;51.096;5.878;2023-03-05T07:18:20;5.07;118.99
67358;HTU21D;54240;51.096;5.878;2023-03-05T07:20:46;5.15;118.99
67358;HTU21D;54240;51.096;5.878;2023-03-05T07:23:12;5.16;118.99
67358;HTU21D;54240;51.096;5.878;2023-03-05T07:25:38;5.01;118.99
67358;HTU21D;54240;51.096;5.878;2023-03-05T07:28:05;5.08;118.99
67358;HTU21D;54240;51.096;5.878;2023-03-05T07:30:32;5.10;118.99
67358;HTU21D;54240;51.096;5.878;2023-03-05T07:32:58;5.07;118.99
67358;HTU21D;54240;51.096;5.878;2023-03-05T07:35:25;5.04;118.99
67358;HTU21D;54240;51.096;5.878;2023-03-05T07:37:51;5.11;118.99
67358;HTU21D;54240;51.096;5.878;2023-03-05T07:40:19;5.15;118.99
67358;HTU21D;54240;51.096;5.878;2023-03-05T07:42:45;5.00;118.99
67358;HTU21D;54240;51.096;5.878;2023-03-05T07:45:21;5.13;118.99
67358;HTU21D;54240;51.096;5.878;2023-03-05T07:47:46;5.10;118.99
67358;HTU21D;54240;51.096;5.878;2023-03-05T07:50:12;5.26;118.99
67358;HTU21D;54240;51.096;5.878;2023-03-05T07:52:38;5.32;118.99
67358;HTU21D;54240;51.096;5.878;2023-03-05T07:55:04;5.41;118.99
67358;HTU21D;54240;51.096;5.878;2023-03-05T07:57:30;5.40;118.99
67358;HTU21D;54240;51.096;5.878;2023-03-05T07:59:56;5.52;118.99
67358;HTU21D;54240;51.096;5.878;2023-03-05T08:02:21;5.50;118.99
67358;HTU21D;54240;51.096;5.878;2023-03-05T08:04:47;5.51;118.99
67358;HTU21D;54240;51.096;5.878;2023-03-05T08:07:15;5.48;118.99
67358;HTU21D;54240;51.096;5.878;2023-03-05T08:09:41;5.57;118.99
67358;HTU21D;54240;51.096;5.878;2023-03-05T08:12:07;5.39;118.99
67358;HTU21D;54240;51.096;5.878;2023-03-05T08:14:35;5.23;118.99
67358;HTU21D;54240;51.096;5.878;2023-03-05T08:17:03;5.15;118.99
67358;HTU21D;54240;51.096;5.878;2023-03-05T08:19:28;5.26;118.99
67358;HTU21D;54240;51.096;5.878;2023-03-05T08:21:55;5.17;118.99
67358;HTU21D;54240;51.096;5.878;2023-03-05T08:24:21;5.34;118.99
67358;HTU21D;54240;51.096;5.878;2023-03-05T08:26:55;5.25;118.99
67358;HTU21D;54240;51.096;5.878;2023-03-05T08:29:21;5.23;118.99
67358;HTU21D;54240;51.096;5.878;2023-03-05T08:31:48;5.02;118.99
67358;HTU21D;54240;51.096;5.878;2023-03-05T08:34:14;4.79;118.99
67358;HTU21D;54240;51.096;5.878;2023-03-05T08:36:40;4.73;118.99
67358;HTU21D;54240;51.096;5.878;2023-03-05T08:39:06;4.78;118.99
67358;HTU21D;54240;51.096;5.878;2023-03-05T08:41:33;4.86;118.99
67358;HTU21D;54240;51.096;5.878;2023-03-05T08:43:59;4.83;118.99
67358;HTU21D;54240;51.096;5.878;2023-03-05T08:46:25;4.76;118.99
67358;HTU21D;54240;51.096;5.878;2023-03-05T08:48:51;4.47;118.99
67358;HTU21D;54240;51.096;5.878;2023-03-05T08:51:20;4.46;118.99
67358;HTU21D;54240;51.096;5.878;2023-03-05T08:53:46;4.49;118.99
67358;HTU21D;54240;51.096;5.878;2023-03-05T08:56:13;4.46;118.99
67358;HTU21D;54240;51.096;5.878;2023-03-05T08:58:40;4.35;118.99
67358;HTU21D;54240;51.096;5.878;2023-03-05T09:01:06;4.51;118.99
67358;HTU21D;54240;51.096;5.878;2023-03-05T09:03:31;4.68;118.99
67358;HTU21D;54240;51.096;5.878;2023-03-05T09:05:59;4.77;118.99
67358;HTU21D;54240;51.096;5.878;2023-03-05T09:08:26;5.09;118.99
67358;HTU21D;54240;51.096;5.878;2023-03-05T09:10:52;5.17;118.99
67358;HTU21D;54240;51.096;5.878;2023-03-05T09:13:17;5.39;118.99
67358;HTU21D;54240;51.096;5.878;2023-03-05T09:15:43;5.54;118.99
67358;HTU21D;54240;51.096;5.878;2023-03-05T09:18:09;5.79;118.99
67358;HTU21D;54240;51.096;5.878;2023-03-05T09:20:36;5.94;118.99
67358;HTU21D;54240;51.096;5.878;2023-03-05T09:23:02;6.16;118.99
67358;HTU21D;54240;51.096;5.878;2023-03-05T09:25:28;6.22;118.99
67358;HTU21D;54240;51.096;5.878;2023-03-05T09:27:54;6.17;118.99
67358;HTU21D;54240;51.096;5.878;2023-03-05T09:30:20;5.99;118.99
67358;HTU21D;54240;51.096;5.878;2023-03-05T09:32:46;6.16;118.99
67358;HTU21D;54240;51.096;5.878;2023-03-05T09:35:12;6.17;118.99
67358;HTU21D;54240;51.096;5.878;2023-03-05T09:37:38;5.91;118.99
67358;HTU21D;54240;51.096;5.878;2023-03-05T09:40:04;5.95;118.99
67358;HTU21D;54240;51.096;5.878;2023-03-05T09:42:44;6.28;118.99
67358;HTU21D;54240;51.096;5.878;2023-03-05T09:45:44;6.55;118.99
67358;HTU21D;54240;51.096;5.878;2023-03-05T09:48:28;6.36;118.99
67358;HTU21D;54240;51.096;5.878;2023-03-05T09:51:04;6.44;118.99
67358;HTU21D;54240;51.096;5.878;2023-03-05T09:56:20;6.64;118.99
67358;HTU21D;54240;51.096;5.878;2023-03-05T09:58:53;6.63;118.99
67358;HTU21D;54240;51.096;5.878;2023-03-05T10:01:36;6.82;118.99
67358;HTU21D;54240;51.096;5.878;2023-03-05T10:04:14;6.72;118.99
67358;HTU21D;54240;51.096;5.878;2023-03-05T10:15:25;6.83;118.99
67358;HTU21D;54240;51.096;5.878;2023-03-05T10:18:08;7.08;118.99
67358;HTU21D;54240;51.096;5.878;2023-03-05T10:31:53;6.70;118.99
67358;HTU21D;54240;51.096;5.878;2023-03-05T10:34:28;6.52;118.99
67358;HTU21D;54240;51.096;5.878;2023-03-05T10:37:20;6.54;118.99
67358;HTU21D;54240;51.096;5.878;2023-03-05T10:45:35;6.85;118.99
67358;HTU21D;54240;51.096;5.878;2023-03-05T10:48:36;6.78;118.99
67358;HTU21D;54240;51.096;5.878;2023-03-05T10:56:12;6.64;94.43
67358;HTU21D;54240;51.096;5.878;2023-03-05T10:58:38;6.86;118.99
67358;HTU21D;54240;51.096;5.878;2023-03-05T11:01:19;7.03;63.28
67358;HTU21D;54240;51.096;5.878;2023-03-05T11:04:00;7.17;79.33
67358;HTU21D;54240;51.096;5.878;2023-03-05T11:06:37;7.49;36.33
67358;HTU21D;54240;51.096;5.878;2023-03-05T11:09:28;7.62;26.62
67358;HTU21D;54240;51.096;5.878;2023-03-05T11:12:01;7.55;22.36
67358;HTU21D;54240;51.096;5.878;2023-03-05T11:14:29;7.54;-6.00
67358;HTU21D;54240;51.096;5.878;2023-03-05T11:17:20;7.39;-6.00
67358;HTU21D;54240;51.096;5.878;2023-03-05T11:19:47;7.52;-6.00
67358;HTU21D;54240;51.096;5.878;2023-03-05T11:22:15;7.65;4.00
67358;HTU21D;54240;51.096;5.878;2023-03-05T11:24:42;7.82;-6.00
67358;HTU21D;54240;51.096;5.878;2023-03-05T11:29:48;7.68;-6.00
67358;HTU21D;54240;51.096;5.878;2023-03-05T11:32:26;7.56;-6.00
67358;HTU21D;54240;51.096;5.878;2023-03-05T11:34:55;7.65;-6.00
67358;HTU21D;54240;51.096;5.878;2023-03-05T11:37:25;7.59;-6.00
67358;HTU21D;54240;51.096;5.878;2023-03-05T11:40:17;7.64;-6.00
67358;HTU21D;54240;51.096;5.878;2023-03-05T11:42:44;7.68;-6.00
67358;HTU21D;54240;51.096;5.878;2023-03-05T11:45:16;7.74;-6.00
67358;HTU21D;54240;51.096;5.878;2023-03-05T11:53:39;7.68;-6.00
67358;HTU21D;54240;51.096;5.878;2023-03-05T11:56:37;7.67;-6.00
67358;HTU21D;54240;51.096;5.878;2023-03-05T11:59:26;7.72;-6.00
67358;HTU21D;54240;51.096;5.878;2023-03-05T12:01:55;7.56;-6.00
67358;HTU21D;54240;51.096;5.878;2023-03-05T12:04:23;7.38;-6.00
67358;HTU21D;54240;51.096;5.878;2023-03-05T12:09:42;7.30;-6.00
67358;HTU21D;54240;51.096;5.878;2023-03-05T12:23:55;7.15;-6.00
67358;HTU21D;54240;51.096;5.878;2023-03-05T12:29:47;7.34;-6.00
67358;HTU21D;54240;51.096;5.878;2023-03-05T12:35:02;7.58;-6.00
67358;HTU21D;54240;51.096;5.878;2023-03-05T12:53:09;7.11;-6.00
67358;HTU21D;54240;51.096;5.878;2023-03-05T12:58:41;6.88;-6.00
67358;HTU21D;54240;51.096;5.878;2023-03-05T13:01:44;6.96;-6.00
67358;HTU21D;54240;51.096;5.878;2023-03-05T13:04:17;6.85;-6.00
67358;HTU21D;54240;51.096;5.878;2023-03-05T13:06:46;6.83;-6.00
67358;HTU21D;54240;51.096;5.878;2023-03-05T13:11:47;6.93;-6.00
67358;HTU21D;54240;51.096;5.878;2023-03-05T13:16:52;6.98;-6.00
67358;HTU21D;54240;51.096;5.878;2023-03-05T13:19:18;7.35;-6.00
67358;HTU21D;54240;51.096;5.878;2023-03-05T13:21:44;7.19;-6.00
67358;HTU21D;54240;51.096;5.878;2023-03-05T13:24:18;7.07;-6.00
67358;HTU21D;54240;51.096;5.878;2023-03-05T13:26:44;7.23;-6.00
67358;HTU21D;54240;51.096;5.878;2023-03-05T13:29:18;7.31;-6.00
67358;HTU21D;54240;51.096;5.878;2023-03-05T13:31:45;7.24;-6.00
67358;HTU21D;54240;51.096;5.878;2023-03-05T13:37:12;6.91;-6.00
67358;HTU21D;54240;51.096;5.878;2023-03-05T13:39:47;6.75;-6.00
67358;HTU21D;54240;51.096;5.878;2023-03-05T13:42:17;6.59;-6.00
67358;HTU21D;54240;51.096;5.878;2023-03-05T13:44:52;6.71;-6.00
67358;HTU21D;54240;51.096;5.878;2023-03-05T13:47:20;6.87;-6.00
67358;HTU21D;54240;51.096;5.878;2023-03-05T13:49:57;6.87;-6.00
67358;HTU21D;54240;51.096;5.878;2023-03-05T13:52:36;6.90;-6.00
67358;HTU21D;54240;51.096;5.878;2023-03-05T13:55:11;6.80;-6.00
67358;HTU21D;54240;51.096;5.878;2023-03-05T13:57:45;7.07;-6.00
67358;HTU21D;54240;51.096;5.878;2023-03-05T14:00:35;7.04;-6.00
67358;HTU21D;54240;51.096;5.878;2023-03-05T14:03:30;7.11;-6.00
67358;HTU21D;54240;51.096;5.878;2023-03-05T14:05:59;6.95;-6.00
67358;HTU21D;54240;51.096;5.878;2023-03-05T14:08:26;7.01;-6.00
67358;HTU21D;54240;51.096;5.878;2023-03-05T14:10:55;6.97;-6.00
67358;HTU21D;54240;51.096;5.878;2023-03-05T14:13:25;6.87;6.79
67358;HTU21D;54240;51.096;5.878;2023-03-05T14:16:12;6.86;8.69
67358;HTU21D;54240;51.096;5.878;2023-03-05T14:18:57;6.81;21.60
67358;HTU21D;54240;51.096;5.878;2023-03-05T14:21:24;6.81;20.48
67358;HTU21D;54240;51.096;5.878;2023-03-05T14:23:52;6.83;17.04
67358;HTU21D;54240;51.096;5.878;2023-03-05T14:34:34;6.74;86.74
67358;HTU21D;54240;51.096;5.878;2023-03-05T14:37:16;6.75;98.77
67358;HTU21D;54240;51.096;5.878;2023-03-05T14:39:53;6.81;98.75
67358;HTU21D;54240;51.096;5.878;2023-03-05T14:42:35;6.76;96.50
67358;HTU21D;54240;51.096;5.878;2023-03-05T14:45:14;6.85;101.43
67358;HTU21D;54240;51.096;5.878;2023-03-05T14:47:41;6.88;91.89
67358;HTU21D;54240;51.096;5.878;2023-03-05T14:50:14;6.85;95.96
67358;HTU21D;54240;51.096;5.878;2023-03-05T14:52:41;6.85;98.43
67358;HTU21D;54240;51.096;5.878;2023-03-05T14:55:16;6.79;112.31
67358;HTU21D;54240;51.096;5.878;2023-03-05T14:57:43;6.83;110.95
67358;HTU21D;54240;51.096;5.878;2023-03-05T15:00:21;6.91;111.80
67358;HTU21D;54240;51.096;5.878;2023-03-05T15:02:47;6.91;104.25
67358;HTU21D;54240;51.096;5.878;2023-03-05T15:05:15;6.90;96.04
67358;HTU21D;54240;51.096;5.878;2023-03-05T15:07:42;6.85;96.52
67358;HTU21D;54240;51.096;5.878;2023-03-05T15:10:13;6.76;99.51
67358;HTU21D;54240;51.096;5.878;2023-03-05T15:12:39;6.58;66.40
67358;HTU21D;54240;51.096;5.878;2023-03-05T15:15:06;6.66;89.30
67358;HTU21D;54240;51.096;5.878;2023-03-05T15:17:35;6.72;80.49
67358;HTU21D;54240;51.096;5.878;2023-03-05T15:20:05;6.65;80.75
67358;HTU21D;54240;51.096;5.878;2023-03-05T15:22:35;6.56;87.19
67358;HTU21D;54240;51.096;5.878;2023-03-05T15:25:03;6.56;85.24
67358;HTU21D;54240;51.096;5.878;2023-03-05T15:27:30;6.63;86.59
67358;HTU21D;54240;51.096;5.878;2023-03-05T15:29:55;6.67;82.73
67358;HTU21D;54240;51.096;5.878;2023-03-05T15:32:21;6.68;86.00
67358;HTU21D;54240;51.096;5.878;2023-03-05T15:34:47;6.56;75.18
67358;HTU21D;54240;51.096;5.878;2023-03-05T15:37:13;6.57;91.22
67358;HTU21D;54240;51.096;5.878;2023-03-05T15:39:39;6.60;95.46
67358;HTU21D;54240;51.096;5.878;2023-03-05T15:42:05;6.53;95.72
67358;HTU21D;54240;51.096;5.878;2023-03-05T15:44:30;6.51;97.03
67358;HTU21D;54240;51.096;5.878;2023-03-05T15:46:56;6.48;100.25
67358;HTU21D;54240;51.096;5.878;2023-03-05T15:49:22;6.55;91.09
67358;HTU21D;54240;51.096;5.878;2023-03-05T15:51:49;6.37;110.01
67358;HTU21D;54240;51.096;5.878;2023-03-05T15:54:15;6.16;118.99
67358;HTU21D;54240;51.096;5.878;2023-03-05T15:56:41;6.06;118.99
67358;HTU21D;54240;51.096;5.878;2023-03-05T15:59:08;5.94;118.99
67358;HTU21D;54240;51.096;5.878;2023-03-05T16:01:37;5.68;118.99
67358;HTU21D;54240;51.096;5.878;2023-03-05T16:04:04;5.74;118.99
67358;HTU21D;54240;51.096;5.878;2023-03-05T16:06:31;5.56;118.99
67358;HTU21D;54240;51.096;5.878;2023-03-05T16:09:02;5.53;118.99
67358;HTU21D;54240;51.096;5.878;2023-03-05T16:11:32;5.54;118.99
67358;HTU21D;54240;51.096;5.878;2023-03-05T16:14:02;5.61;118.99
67358;HTU21D;54240;51.096;5.878;2023-03-05T16:16:29;5.67;118.99
67358;HTU21D;54240;51.096;5.878;2023-03-05T16:18:57;5.69;118.99
67358;HTU21D;54240;51.096;5.878;2023-03-05T16:21:23;5.76;118.99
67358;HTU21D;54240;51.096;5.878;2023-03-05T16:23:49;5.78;118.99
67358;HTU21D;54240;51.096;5.878;2023-03-05T16:26:15;5.90;118.99
67358;HTU21D;54240;51.096;5.878;2023-03-05T16:28:41;6.02;118.99
67358;HTU21D;54240;51.096;5.878;2023-03-05T16:31:07;6.01;118.99
67358;HTU21D;54240;51.096;5.878;2023-03-05T16:33:33;6.05;118.99
67358;HTU21D;54240;51.096;5.878;2023-03-05T16:36:24;5.94;118.99
67358;HTU21D;54240;51.096;5.878;2023-03-05T16:38:53;6.00;118.99
67358;HTU21D;54240;51.096;5.878;2023-03-05T16:41:19;5.94;118.99
67358;HTU21D;54240;51.096;5.878;2023-03-05T16:43:46;6.04;118.99
67358;HTU21D;54240;51.096;5.878;2023-03-05T16:46:13;5.99;118.99
67358;HTU21D;54240;51.096;5.878;2023-03-05T16:48:41;6.02;118.99
67358;HTU21D;54240;51.096;5.878;2023-03-05T16:51:07;6.02;118.99
67358;HTU21D;54240;51.096;5.878;2023-03-05T16:53:33;6.04;118.99
67358;HTU21D;54240;51.096;5.878;2023-03-05T16:56:02;6.07;118.99
67358;HTU21D;54240;51.096;5.878;2023-03-05T16:58:29;6.12;118.99
67358;HTU21D;54240;51.096;5.878;2023-03-05T17:00:55;6.12;118.99
67358;HTU21D;54240;51.096;5.878;2023-03-05T17:03:21;6.11;118.99
67358;HTU21D;54240;51.096;5.878;2023-03-05T17:05:47;6.13;118.99
67358;HTU21D;54240;51.096;5.878;2023-03-05T17:08:13;6.10;118.99
67358;HTU21D;54240;51.096;5.878;2023-03-05T17:10:41;6.08;118.99
67358;HTU21D;54240;51.096;5.878;2023-03-05T17:13:07;6.08;118.99
67358;HTU21D;54240;51.096;5.878;2023-03-05T17:15:34;5.93;118.99
67358;HTU21D;54240;51.096;5.878;2023-03-05T17:18:00;5.87;118.99
67358;HTU21D;54240;51.096;5.878;2023-03-05T17:20:26;5.83;118.99
67358;HTU21D;54240;51.096;5.878;2023-03-05T17:22:52;5.76;118.99